createdAt,value
2018-05-09T00:00:47.835Z,0
2018-05-09T00:01:47.904Z,0
2018-05-09T00:02:47.583Z,0
2018-05-09T00:03:47.907Z,0
2018-05-09T00:04:47.952Z,0
2018-05-09T00:05:47.380Z,0
2018-05-09T00:06:47.789Z,0
2018-05-09T00:07:48.003Z,0
2018-05-09T00:08:47.725Z,0
2018-05-09T00:09:47.759Z,0
2018-05-09T00:10:48.093Z,0
2018-05-09T00:11:47.794Z,0
2018-05-09T00:12:47.811Z,0
2018-05-09T00:13:47.567Z,0
2018-05-09T00:14:48.162Z,0
2018-05-09T00:15:48.198Z,0
2018-05-09T00:16:47.904Z,0
2018-05-09T00:17:47.920Z,0
2018-05-09T00:18:48.268Z,0
2018-05-09T00:19:48.247Z,0
2018-05-09T00:20:48.014Z,0
2018-05-09T00:21:47.735Z,0
2018-05-09T00:22:48.064Z,0
2018-05-09T00:23:47.801Z,0
2018-05-09T00:24:48.359Z,0
2018-05-09T00:25:48.413Z,0
2018-05-09T00:26:48.140Z,0
2018-05-09T00:27:48.460Z,0
2018-05-09T00:28:48.179Z,0
2018-05-09T00:29:48.478Z,0
2018-05-09T00:30:48.235Z,0
2018-05-09T00:31:48.260Z,0
2018-05-09T00:32:48.285Z,0
2018-05-09T00:33:47.735Z,0
2018-05-09T00:34:48.320Z,0
2018-05-09T00:35:48.331Z,0
2018-05-09T00:36:48.426Z,0
2018-05-09T00:37:48.400Z,0
2018-05-09T00:38:48.715Z,0
2018-05-09T00:39:48.428Z,0
2018-05-09T00:40:48.432Z,0
2018-05-09T00:41:48.378Z,0
2018-05-09T00:42:48.516Z,0
2018-05-09T00:43:48.815Z,0
2018-05-09T00:44:48.829Z,0
2018-05-09T00:45:48.860Z,0
2018-05-09T00:46:48.625Z,0
2018-05-09T00:47:48.330Z,0
2018-05-09T00:48:48.915Z,0
2018-05-09T00:49:48.964Z,0
2018-05-09T00:50:48.678Z,0
2018-05-09T00:51:48.980Z,0
2018-05-09T00:52:48.975Z,0
2018-05-09T00:53:48.726Z,0
2018-05-09T00:54:48.193Z,0
2018-05-09T00:55:48.793Z,0
2018-05-09T00:56:48.855Z,0
2018-05-09T00:57:48.567Z,0
2018-05-09T00:58:48.872Z,0
2018-05-09T00:59:48.594Z,0
2018-05-09T01:00:48.925Z,0
2018-05-09T01:01:48.937Z,0
2018-05-09T01:02:49.260Z,0
2018-05-09T01:03:48.671Z,0
2018-05-09T01:04:49.275Z,0
2018-05-09T01:05:49.006Z,0
2018-05-09T01:06:49.114Z,0
2018-05-09T01:07:49.364Z,0
2018-05-09T01:08:49.080Z,0
2018-05-09T01:09:49.092Z,0
2018-05-09T01:10:48.870Z,0
2018-05-09T01:11:48.858Z,0
2018-05-09T01:12:48.884Z,0
2018-05-09T01:13:49.561Z,0
2018-05-09T01:14:49.469Z,0
2018-05-09T01:15:48.935Z,0
2018-05-09T01:16:49.324Z,0
2018-05-09T01:17:49.299Z,0
2018-05-09T01:18:49.569Z,0
2018-05-09T01:19:49.611Z,0
2018-05-09T01:20:49.335Z,0
2018-05-09T01:21:49.424Z,0
2018-05-09T01:22:49.424Z,0
2018-05-09T01:23:48.864Z,0
2018-05-09T01:24:49.463Z,0
2018-05-09T01:25:49.172Z,0
2018-05-09T01:26:49.246Z,0
2018-05-09T01:27:49.221Z,0
2018-05-09T01:28:49.821Z,0
2018-05-09T01:29:48.997Z,0
2018-05-09T01:30:49.277Z,0
2018-05-09T01:31:49.940Z,0
2018-05-09T01:32:49.736Z,0
2018-05-09T01:33:50.052Z,0
2018-05-09T01:34:49.666Z,0
2018-05-09T01:35:49.984Z,0
2018-05-09T01:36:49.725Z,0
2018-05-09T01:37:49.457Z,0
2018-05-09T01:38:49.739Z,0
2018-05-09T01:39:50.590Z,0
2018-05-09T01:40:49.784Z,0
2018-05-09T01:41:50.092Z,0
2018-05-09T01:42:49.924Z,0
2018-05-09T01:43:50.401Z,0
2018-05-09T01:44:50.769Z,0
2018-05-09T01:45:50.214Z,0
2018-05-09T01:46:50.543Z,0
2018-05-09T01:47:50.546Z,0
2018-05-09T01:48:50.966Z,0
2018-05-09T01:49:50.588Z,0
2018-05-09T01:50:50.653Z,0
2018-05-09T01:51:50.973Z,0
2018-05-09T01:52:50.390Z,0
2018-05-09T01:53:50.337Z,0
2018-05-09T01:54:50.490Z,0
2018-05-09T01:55:50.407Z,0
2018-05-09T01:56:50.152Z,0
2018-05-09T01:57:50.182Z,0
2018-05-09T01:58:49.912Z,0
2018-05-09T01:59:50.496Z,0
2018-05-09T02:00:49.985Z,0
2018-05-09T02:01:50.536Z,0
2018-05-09T02:02:50.288Z,0
2018-05-09T02:03:50.578Z,0
2018-05-09T02:04:50.600Z,0
2018-05-09T02:05:50.646Z,0
2018-05-09T02:06:50.088Z,0
2018-05-09T02:07:50.414Z,0
2018-05-09T02:08:50.403Z,0
2018-05-09T02:09:50.416Z,0
2018-05-09T02:10:50.456Z,0
2018-05-09T02:11:50.759Z,0
2018-05-09T02:12:50.486Z,0
2018-05-09T02:13:50.585Z,0
2018-05-09T02:14:50.263Z,0
2018-05-09T02:15:50.824Z,0
2018-05-09T02:16:50.855Z,0
2018-05-09T02:17:50.924Z,0
2018-05-09T02:18:50.607Z,0
2018-05-09T02:19:50.092Z,0
2018-05-09T02:20:50.922Z,0
2018-05-09T02:21:50.671Z,0
2018-05-09T02:22:50.483Z,0
2018-05-09T02:23:51.040Z,0
2018-05-09T02:24:50.726Z,0
2018-05-09T02:25:51.048Z,0
2018-05-09T02:26:50.774Z,0
2018-05-09T02:27:50.547Z,0
2018-05-09T02:28:51.217Z,0
2018-05-09T02:29:50.851Z,0
2018-05-09T02:30:51.253Z,0
2018-05-09T02:31:51.231Z,0
2018-05-09T02:32:50.987Z,0
2018-05-09T02:33:51.296Z,0
2018-05-09T02:34:51.379Z,0
2018-05-09T02:35:51.331Z,0
2018-05-09T02:36:51.302Z,0
2018-05-09T02:37:51.043Z,0
2018-05-09T02:38:51.388Z,0
2018-05-09T02:39:51.067Z,0
2018-05-09T02:40:51.110Z,0
2018-05-09T02:41:51.149Z,0
2018-05-09T02:42:50.905Z,0
2018-05-09T02:43:51.881Z,0
2018-05-09T02:44:50.943Z,0
2018-05-09T02:45:51.515Z,0
2018-05-09T02:46:50.934Z,0
2018-05-09T02:47:51.554Z,0
2018-05-09T02:48:51.575Z,0
2018-05-09T02:49:51.480Z,0
2018-05-09T02:50:51.312Z,0
2018-05-09T02:51:51.606Z,0
2018-05-09T02:52:51.631Z,0
2018-05-09T02:53:51.660Z,0
2018-05-09T02:54:51.450Z,0
2018-05-09T02:55:51.739Z,0
2018-05-09T02:56:51.731Z,0
2018-05-09T02:57:51.559Z,0
2018-05-09T02:58:51.775Z,0
2018-05-09T02:59:51.785Z,0
2018-05-09T03:00:51.809Z,0
2018-05-09T03:01:51.824Z,0
2018-05-09T03:02:51.577Z,0
2018-05-09T03:03:51.886Z,0
2018-05-09T03:04:51.610Z,0
2018-05-09T03:05:51.928Z,0
2018-05-09T03:06:51.938Z,0
2018-05-09T03:07:51.941Z,0
2018-05-09T03:08:51.978Z,0
2018-05-09T03:09:51.779Z,0
2018-05-09T03:10:51.769Z,0
2018-05-09T03:11:52.050Z,0
2018-05-09T03:12:51.826Z,0
2018-05-09T03:13:51.792Z,0
2018-05-09T03:14:52.118Z,0
2018-05-09T03:15:51.857Z,0
2018-05-09T03:16:52.140Z,0
2018-05-09T03:17:52.171Z,0
2018-05-09T03:18:51.356Z,0
2018-05-09T03:19:52.198Z,0
2018-05-09T03:20:51.932Z,0
2018-05-09T03:21:51.692Z,0
2018-05-09T03:22:52.318Z,0
2018-05-09T03:23:52.314Z,0
2018-05-09T03:24:52.030Z,0
2018-05-09T03:25:52.037Z,0
2018-05-09T03:26:51.808Z,0
2018-05-09T03:27:52.437Z,0
2018-05-09T03:28:52.369Z,0
2018-05-09T03:29:52.398Z,0
2018-05-09T03:30:52.148Z,0
2018-05-09T03:31:52.156Z,0
2018-05-09T03:32:51.901Z,0
2018-05-09T03:33:52.197Z,0
2018-05-09T03:34:51.996Z,0
2018-05-09T03:35:51.993Z,0
2018-05-09T03:36:52.275Z,0
2018-05-09T03:37:52.292Z,0
2018-05-09T03:38:52.318Z,0
2018-05-09T03:39:52.456Z,0
2018-05-09T03:40:52.343Z,0
2018-05-09T03:41:52.638Z,0
2018-05-09T03:42:52.408Z,0
2018-05-09T03:43:52.448Z,0
2018-05-09T03:44:52.717Z,0
2018-05-09T03:45:52.497Z,0
2018-05-09T03:46:52.211Z,0
2018-05-09T03:47:52.828Z,0
2018-05-09T03:48:52.828Z,0
2018-05-09T03:49:52.825Z,0
2018-05-09T03:50:52.584Z,0
2018-05-09T03:51:52.616Z,0
2018-05-09T03:52:52.355Z,0
2018-05-09T03:53:52.057Z,0
2018-05-09T03:54:52.998Z,0
2018-05-09T03:55:52.949Z,0
2018-05-09T03:56:52.704Z,0
2018-05-09T03:57:53.042Z,0
2018-05-09T03:58:52.719Z,0
2018-05-09T03:59:52.485Z,0
2018-05-09T04:00:52.507Z,0
2018-05-09T04:01:53.079Z,0
2018-05-09T04:02:52.555Z,0
2018-05-09T04:03:52.865Z,0
2018-05-09T04:04:52.870Z,0
2018-05-09T04:05:53.196Z,0
2018-05-09T04:06:53.217Z,0
2018-05-09T04:07:52.649Z,0
2018-05-09T04:08:52.959Z,0
2018-05-09T04:09:53.250Z,0
2018-05-09T04:10:53.028Z,0
2018-05-09T04:11:53.290Z,0
2018-05-09T04:12:53.033Z,0
2018-05-09T04:13:53.057Z,0
2018-05-09T04:14:53.689Z,0
2018-05-09T04:15:53.087Z,0
2018-05-09T04:16:53.413Z,0
2018-05-09T04:17:53.421Z,0
2018-05-09T04:18:53.456Z,0
2018-05-09T04:19:53.464Z,0
2018-05-09T04:20:53.959Z,0
2018-05-09T04:21:53.501Z,0
2018-05-09T04:22:53.558Z,0
2018-05-09T04:23:53.235Z,0
2018-05-09T04:24:53.566Z,0
2018-05-09T04:25:53.293Z,0
2018-05-09T04:26:53.592Z,0
2018-05-09T04:27:53.092Z,0
2018-05-09T04:28:53.659Z,0
2018-05-09T04:29:53.666Z,0
2018-05-09T04:30:53.665Z,0
2018-05-09T04:31:53.688Z,0
2018-05-09T04:32:53.779Z,0
2018-05-09T04:33:53.475Z,0
2018-05-09T04:34:53.476Z,0
2018-05-09T04:39:24.042Z,0
2018-05-09T04:39:34.131Z,0
2018-05-09T04:40:33.892Z,0
2018-05-09T04:41:34.180Z,0
2018-05-09T04:42:33.391Z,0
2018-05-09T04:43:34.229Z,5
2018-05-09T04:44:33.713Z,5
2018-05-09T04:45:34.283Z,5
2018-05-09T04:46:34.019Z,5
2018-05-09T04:47:33.784Z,5
2018-05-09T04:48:34.085Z,5
2018-05-09T04:49:33.874Z,5
2018-05-09T04:50:34.384Z,5
2018-05-09T04:51:34.198Z,5
2018-05-09T04:52:34.159Z,5
2018-05-09T04:53:34.460Z,5
2018-05-09T04:54:33.938Z,5
2018-05-09T04:55:35.131Z,5
2018-05-09T04:56:34.494Z,5
2018-05-09T04:57:34.242Z,5
2018-05-09T04:58:34.339Z,5
2018-05-09T04:59:34.298Z,5
2018-05-09T05:00:34.340Z,5
2018-05-09T05:01:34.362Z,5
2018-05-09T05:02:34.659Z,5
2018-05-09T05:03:34.396Z,5
2018-05-09T05:04:34.790Z,5
2018-05-09T05:05:34.399Z,5
2018-05-09T05:06:34.169Z,5
2018-05-09T05:07:34.176Z,5
2018-05-09T05:08:34.798Z,5
2018-05-09T05:09:34.786Z,5
2018-05-09T05:10:34.813Z,5
2018-05-09T05:11:34.543Z,5
2018-05-09T05:12:34.862Z,5
2018-05-09T05:13:34.853Z,5
2018-05-09T05:14:34.628Z,5
2018-05-09T05:15:34.920Z,5
2018-05-09T05:16:34.963Z,5
2018-05-09T05:17:34.664Z,5
2018-05-09T05:18:34.961Z,5
2018-05-09T05:19:34.691Z,5
2018-05-09T05:20:35.010Z,5
2018-05-09T05:21:34.747Z,5
2018-05-09T05:22:34.522Z,5
2018-05-09T05:23:34.778Z,5
2018-05-09T05:24:34.812Z,5
2018-05-09T05:25:35.114Z,5
2018-05-09T05:26:35.124Z,5
2018-05-09T05:27:35.148Z,5
2018-05-09T05:28:35.002Z,5
2018-05-09T05:29:34.893Z,5
2018-05-09T05:30:34.668Z,5
2018-05-09T05:31:35.244Z,5
2018-05-09T05:32:34.699Z,5
2018-05-09T05:33:35.269Z,5
2018-05-09T05:34:35.294Z,5
2018-05-09T05:35:35.048Z,5
2018-05-09T05:36:35.060Z,5
2018-05-09T05:37:35.329Z,5
2018-05-09T05:38:35.091Z,5
2018-05-09T05:39:34.863Z,5
2018-05-09T05:40:34.871Z,5
2018-05-09T05:41:35.466Z,5
2018-05-09T05:42:34.897Z,5
2018-05-09T05:43:35.285Z,5
2018-05-09T05:44:35.469Z,5
2018-05-09T05:45:35.165Z,5
2018-05-09T05:46:35.275Z,5
2018-05-09T05:47:35.027Z,5
2018-05-09T05:48:35.585Z,5
2018-05-09T05:49:35.320Z,5
2018-05-09T05:50:35.091Z,5
2018-05-09T05:51:35.389Z,5
2018-05-09T05:52:35.641Z,5
2018-05-09T05:53:35.129Z,5
2018-05-09T05:54:35.182Z,5
2018-05-09T05:55:35.736Z,5
2018-05-09T05:56:35.751Z,5
2018-05-09T05:57:35.464Z,10
2018-05-09T05:58:35.550Z,10
2018-05-09T05:59:35.331Z,10
2018-05-09T06:00:35.019Z,5
2018-05-09T06:01:35.558Z,5
2018-05-09T06:02:35.620Z,5
2018-05-09T06:03:35.348Z,5
2018-05-09T06:04:35.350Z,5
2018-05-09T06:05:35.392Z,5
2018-05-09T06:06:36.373Z,5
2018-05-09T06:07:35.709Z,5
2018-05-09T06:08:34.916Z,5
2018-05-09T06:09:35.749Z,5
2018-05-09T06:10:35.759Z,5
2018-05-09T06:11:35.772Z,5
2018-05-09T06:12:35.531Z,5
2018-05-09T06:13:36.083Z,5
2018-05-09T06:14:35.592Z,5
2018-05-09T06:15:35.862Z,5
2018-05-09T06:16:35.615Z,5
2018-05-09T06:17:35.917Z,5
2018-05-09T06:18:35.889Z,5
2018-05-09T06:19:36.234Z,5
2018-05-09T06:20:35.966Z,5
2018-05-09T06:21:36.223Z,5
2018-05-09T06:22:36.016Z,5
2018-05-09T06:23:36.014Z,5
2018-05-09T06:24:35.518Z,5
2018-05-09T06:25:35.805Z,5
2018-05-09T06:26:36.092Z,5
2018-05-09T06:27:36.113Z,5
2018-05-09T06:28:36.140Z,5
2018-05-09T06:29:36.436Z,5
2018-05-09T06:30:36.154Z,5
2018-05-09T06:31:35.661Z,5
2018-05-09T06:32:35.940Z,5
2018-05-09T06:33:35.974Z,5
2018-05-09T06:34:36.263Z,5
2018-05-09T06:35:36.269Z,5
2018-05-09T06:36:36.283Z,5
2018-05-09T06:37:36.314Z,5
2018-05-09T06:38:36.343Z,5
2018-05-09T06:39:36.329Z,5
2018-05-09T06:40:36.130Z,5
2018-05-09T06:41:36.666Z,5
2018-05-09T06:42:36.437Z,5
2018-05-09T06:43:36.478Z,5
2018-05-09T06:44:36.207Z,5
2018-05-09T06:45:36.190Z,5
2018-05-09T06:46:36.231Z,5
2018-05-09T06:47:36.517Z,5
2018-05-09T06:48:35.992Z,5
2018-05-09T06:49:36.827Z,5
2018-05-09T06:50:36.562Z,5
2018-05-09T06:51:36.344Z,5
2018-05-09T06:52:36.620Z,5
2018-05-09T06:53:36.929Z,5
2018-05-09T06:54:36.120Z,5
2018-05-09T06:55:36.702Z,5
2018-05-09T06:56:37.013Z,5
2018-05-09T06:57:36.774Z,5
2018-05-09T06:58:37.015Z,5
2018-05-09T06:59:37.062Z,5
2018-05-09T07:00:36.784Z,5
2018-05-09T07:01:36.538Z,5
2018-05-09T07:02:36.599Z,5
2018-05-09T07:03:37.143Z,5
2018-05-09T07:04:37.137Z,5
2018-05-09T07:05:37.191Z,5
2018-05-09T07:06:38.020Z,5
2018-05-09T07:07:36.682Z,5
2018-05-09T07:08:36.675Z,5
2018-05-09T07:09:37.272Z,5
2018-05-09T07:10:37.011Z,5
2018-05-09T07:11:36.481Z,5
2018-05-09T07:12:36.881Z,5
2018-05-09T07:13:37.184Z,5
2018-05-09T07:14:36.560Z,5
2018-05-09T07:15:37.105Z,5
2018-05-09T07:16:37.138Z,5
2018-05-09T07:17:37.468Z,5
2018-05-09T07:18:37.464Z,5
2018-05-09T07:19:36.948Z,5
2018-05-09T07:20:37.480Z,5
2018-05-09T07:21:37.506Z,5
2018-05-09T07:22:37.045Z,5
2018-05-09T07:23:37.561Z,5
2018-05-09T07:24:37.320Z,5
2018-05-09T07:25:37.339Z,5
2018-05-09T07:26:37.351Z,5
2018-05-09T07:27:37.640Z,10
2018-05-09T07:28:37.709Z,10
2018-05-09T07:29:37.708Z,10
2018-05-09T07:30:37.436Z,10
2018-05-09T07:31:37.760Z,10
2018-05-09T07:32:37.482Z,10
2018-05-09T07:33:37.255Z,10
2018-05-09T07:34:37.808Z,10
2018-05-09T07:35:38.242Z,10
2018-05-09T07:36:37.565Z,10
2018-05-09T07:37:37.328Z,10
2018-05-09T07:38:37.873Z,10
2018-05-09T07:39:37.370Z,10
2018-05-09T07:40:37.908Z,10
2018-05-09T07:41:37.405Z,10
2018-05-09T07:42:37.413Z,10
2018-05-09T07:43:38.038Z,10
2018-05-09T07:44:38.018Z,10
2018-05-09T07:45:37.501Z,10
2018-05-09T07:46:37.906Z,5
2018-05-09T07:47:38.511Z,5
2018-05-09T07:48:37.825Z,10
2018-05-09T07:49:38.131Z,10
2018-05-09T07:50:38.131Z,10
2018-05-09T07:51:37.917Z,15
2018-05-09T07:52:37.653Z,25
2018-05-09T07:53:37.940Z,30
2018-05-09T07:54:37.967Z,40
2018-05-09T07:55:37.908Z,50
2018-05-09T07:56:37.734Z,45
2018-05-09T07:57:38.276Z,30
2018-05-09T07:58:38.048Z,20
2018-05-09T07:59:38.087Z,15
2018-05-09T08:00:38.098Z,10
2018-05-09T08:01:38.143Z,10
2018-05-09T08:02:38.439Z,10
2018-05-09T08:03:38.165Z,10
2018-05-09T08:04:38.193Z,10
2018-05-09T08:05:38.523Z,10
2018-05-09T08:06:38.492Z,10
2018-05-09T08:07:38.242Z,10
2018-05-09T08:08:38.011Z,10
2018-05-09T08:09:38.021Z,10
2018-05-09T08:10:38.688Z,10
2018-05-09T08:11:38.609Z,10
2018-05-09T08:12:38.668Z,10
2018-05-09T08:13:38.383Z,10
2018-05-09T08:14:38.435Z,10
2018-05-09T08:15:38.170Z,10
2018-05-09T08:16:38.462Z,10
2018-05-09T08:17:38.756Z,10
2018-05-09T08:18:38.509Z,10
2018-05-09T08:19:38.795Z,10
2018-05-09T08:20:38.847Z,15
2018-05-09T08:21:38.030Z,15
2018-05-09T08:22:38.612Z,15
2018-05-09T08:23:38.603Z,15
2018-05-09T08:24:38.908Z,15
2018-05-09T08:25:38.400Z,15
2018-05-09T08:26:38.952Z,15
2018-05-09T08:27:38.711Z,15
2018-05-09T08:28:39.040Z,15
2018-05-09T08:29:39.039Z,15
2018-05-09T08:30:39.337Z,20
2018-05-09T08:31:38.816Z,20
2018-05-09T08:32:38.307Z,15
2018-05-09T08:33:38.877Z,15
2018-05-09T08:34:38.901Z,10
2018-05-09T08:35:39.211Z,15
2018-05-09T08:36:39.388Z,15
2018-05-09T08:37:39.306Z,15
2018-05-09T08:38:39.285Z,15
2018-05-09T08:39:39.291Z,15
2018-05-09T08:40:39.304Z,15
2018-05-09T08:41:39.062Z,15
2018-05-09T08:42:39.340Z,15
2018-05-09T08:43:40.249Z,15
2018-05-09T08:44:39.138Z,15
2018-05-09T08:45:39.396Z,15
2018-05-09T08:46:39.186Z,15
2018-05-09T08:47:39.487Z,15
2018-05-09T08:48:39.234Z,15
2018-05-09T08:49:39.269Z,15
2018-05-09T08:50:39.559Z,15
2018-05-09T08:51:39.004Z,15
2018-05-09T08:52:38.790Z,15
2018-05-09T08:53:39.628Z,15
2018-05-09T08:54:39.395Z,10
2018-05-09T08:55:39.240Z,15
2018-05-09T08:56:39.391Z,15
2018-05-09T08:57:40.521Z,15
2018-05-09T08:58:40.509Z,15
2018-05-09T08:59:40.461Z,15
2018-05-09T09:00:40.884Z,15
2018-05-09T09:01:40.836Z,15
2018-05-09T09:02:39.981Z,15
2018-05-09T09:03:40.930Z,15
2018-05-09T09:04:40.371Z,15
2018-05-09T09:05:41.228Z,15
2018-05-09T09:06:40.664Z,15
2018-05-09T09:07:39.945Z,15
2018-05-09T09:08:41.057Z,20
2018-05-09T09:09:40.777Z,20
2018-05-09T09:10:40.051Z,20
2018-05-09T09:11:40.872Z,20
2018-05-09T09:12:40.620Z,20
2018-05-09T09:13:40.863Z,20
2018-05-09T09:14:41.659Z,20
2018-05-09T09:15:41.185Z,20
2018-05-09T09:16:40.832Z,15
2018-05-09T09:17:41.266Z,20
2018-05-09T09:18:41.502Z,25
2018-05-09T09:19:41.024Z,30
2018-05-09T09:20:41.927Z,35
2018-05-09T09:21:40.462Z,35
2018-05-09T09:22:41.058Z,35
2018-05-09T09:23:41.091Z,35
2018-05-09T09:24:40.719Z,40
2018-05-09T09:25:41.923Z,40
2018-05-09T09:26:40.175Z,35
2018-05-09T09:27:42.010Z,35
2018-05-09T09:28:41.273Z,35
2018-05-09T09:29:40.570Z,35
2018-05-09T09:30:41.822Z,35
2018-05-09T09:31:41.343Z,35
2018-05-09T09:32:40.743Z,40
2018-05-09T09:33:41.496Z,45
2018-05-09T09:34:41.316Z,50
2018-05-09T09:35:42.092Z,50
2018-05-09T09:36:40.991Z,60
2018-05-09T09:37:41.155Z,55
2018-05-09T09:38:42.144Z,65
2018-05-09T09:39:42.030Z,50
2018-05-09T09:40:42.251Z,50
2018-05-09T09:41:41.419Z,45
2018-05-09T09:42:40.786Z,50
2018-05-09T09:43:41.303Z,45
2018-05-09T09:44:41.344Z,45
2018-05-09T09:45:41.196Z,45
2018-05-09T09:46:40.701Z,45
2018-05-09T09:47:40.992Z,50
2018-05-09T09:48:40.509Z,50
2018-05-09T09:49:40.872Z,50
2018-05-09T09:50:41.229Z,45
2018-05-09T09:51:41.105Z,35
2018-05-09T09:52:40.880Z,35
2018-05-09T09:53:41.159Z,40
2018-05-09T09:54:40.925Z,35
2018-05-09T09:55:40.978Z,35
2018-05-09T09:56:41.228Z,35
2018-05-09T09:57:41.001Z,35
2018-05-09T09:58:41.310Z,40
2018-05-09T09:59:41.038Z,45
2018-05-09T10:00:41.350Z,45
2018-05-09T10:01:41.763Z,50
2018-05-09T10:02:41.158Z,50
2018-05-09T10:03:41.434Z,50
2018-05-09T10:04:40.918Z,55
2018-05-09T10:05:41.240Z,55
2018-05-09T10:06:41.239Z,60
2018-05-09T10:07:41.537Z,60
2018-05-09T10:08:41.276Z,55
2018-05-09T10:09:41.628Z,50
2018-05-09T10:10:41.631Z,50
2018-05-09T10:11:41.496Z,55
2018-05-09T10:12:41.419Z,60
2018-05-09T10:13:41.184Z,65
2018-05-09T10:14:41.207Z,65
2018-05-09T10:15:41.231Z,65
2018-05-09T10:16:41.280Z,65
2018-05-09T10:17:41.828Z,60
2018-05-09T10:18:41.619Z,60
2018-05-09T10:19:41.864Z,60
2018-05-09T10:20:41.907Z,60
2018-05-09T10:21:41.936Z,60
2018-05-09T10:22:41.947Z,65
2018-05-09T10:23:41.993Z,60
2018-05-09T10:24:41.206Z,55
2018-05-09T10:25:41.785Z,55
2018-05-09T10:26:41.825Z,45
2018-05-09T10:27:42.116Z,45
2018-05-09T10:28:41.861Z,50
2018-05-09T10:29:41.876Z,50
2018-05-09T10:30:41.923Z,55
2018-05-09T10:31:41.756Z,60
2018-05-09T10:32:42.271Z,65
2018-05-09T10:33:41.738Z,70
2018-05-09T10:34:42.057Z,65
2018-05-09T10:35:41.777Z,70
2018-05-09T10:36:42.128Z,55
2018-05-09T10:37:42.435Z,50
2018-05-09T10:38:41.912Z,55
2018-05-09T10:39:42.204Z,55
2018-05-09T10:40:42.214Z,55
2018-05-09T10:41:42.044Z,60
2018-05-09T10:42:42.294Z,60
2018-05-09T10:43:42.316Z,60
2018-05-09T10:44:42.063Z,60
2018-05-09T10:45:41.575Z,60
2018-05-09T10:46:42.112Z,60
2018-05-09T10:47:42.606Z,65
2018-05-09T10:52:15.280Z,65
2018-05-09T10:52:45.527Z,65
2018-05-09T10:53:45.861Z,65
2018-05-09T10:54:46.156Z,65
2018-05-09T10:55:45.917Z,65
2018-05-09T10:56:45.924Z,70
2018-05-09T10:57:46.462Z,70
2018-05-09T10:58:45.996Z,70
2018-05-09T10:59:46.513Z,70
2018-05-09T11:00:46.320Z,65
2018-05-09T11:01:46.072Z,65
2018-05-09T11:02:46.096Z,65
2018-05-09T11:03:46.666Z,65
2018-05-09T11:04:46.465Z,65
2018-05-09T11:05:46.185Z,65
2018-05-09T11:06:46.493Z,65
2018-05-09T11:07:46.289Z,70
2018-05-09T11:08:46.338Z,75
2018-05-09T11:09:46.296Z,75
2018-05-09T11:10:46.618Z,70
2018-05-09T11:11:46.935Z,70
2018-05-09T11:12:46.964Z,75
2018-05-09T11:13:46.681Z,85
2018-05-09T11:14:46.725Z,80
2018-05-09T11:15:47.009Z,70
2018-05-09T11:16:47.032Z,75
2018-05-09T11:17:46.876Z,75
2018-05-09T11:18:46.303Z,65
2018-05-09T11:19:46.864Z,80
2018-05-09T11:20:46.932Z,65
2018-05-09T11:21:46.931Z,55
2018-05-09T11:22:46.976Z,60
2018-05-09T11:23:47.282Z,70
2018-05-09T11:24:46.608Z,70
2018-05-09T11:25:47.361Z,70
2018-05-09T11:26:46.829Z,75
2018-05-09T11:27:46.900Z,60
2018-05-09T11:28:46.874Z,80
2018-05-09T11:29:47.163Z,85
2018-05-09T11:30:46.944Z,85
2018-05-09T11:31:46.970Z,80
2018-05-09T11:32:47.299Z,70
2018-05-09T11:33:47.599Z,60
2018-05-09T11:34:47.074Z,55
2018-05-09T11:35:47.349Z,55
2018-05-09T11:36:47.652Z,55
2018-05-09T11:37:47.512Z,50
2018-05-09T11:38:47.707Z,45
2018-05-09T11:39:47.772Z,45
2018-05-09T11:40:47.241Z,45
2018-05-09T11:41:47.571Z,50
2018-05-09T11:42:47.884Z,50
2018-05-09T11:43:47.085Z,50
2018-05-09T11:44:47.421Z,50
2018-05-09T11:45:47.696Z,50
2018-05-09T11:46:47.989Z,30
2018-05-09T11:47:47.986Z,30
2018-05-09T11:48:47.775Z,60
2018-05-09T11:49:48.074Z,55
2018-05-09T11:50:47.821Z,50
2018-05-09T11:51:47.721Z,50
2018-05-09T11:52:47.638Z,50
2018-05-09T11:53:47.652Z,50
2018-05-09T11:54:48.239Z,50
2018-05-09T11:55:48.275Z,50
2018-05-09T11:56:47.994Z,50
2018-05-09T11:57:48.303Z,50
2018-05-09T11:58:48.317Z,50
2018-05-09T11:59:48.375Z,50
2018-05-09T12:00:47.873Z,50
2018-05-09T12:01:48.170Z,50
2018-05-09T12:02:48.309Z,55
2018-05-09T12:03:48.232Z,55
2018-05-09T12:04:48.540Z,55
2018-05-09T12:05:48.591Z,50
2018-05-09T12:06:48.578Z,25
2018-05-09T12:07:48.637Z,25
2018-05-09T12:08:48.662Z,50
2018-05-09T12:09:48.661Z,50
2018-05-09T12:10:49.248Z,50
2018-05-09T12:11:48.515Z,50
2018-05-09T12:12:48.850Z,55
2018-05-09T12:13:48.566Z,60
2018-05-09T12:14:48.588Z,60
2018-05-09T12:15:48.631Z,60
2018-05-09T12:16:48.635Z,35
2018-05-09T12:17:49.016Z,60
2018-05-09T12:18:48.992Z,55
2018-05-09T12:19:49.003Z,35
2018-05-09T12:20:49.043Z,30
2018-05-09T12:21:48.796Z,25
2018-05-09T12:22:48.821Z,55
2018-05-09T12:23:49.153Z,60
2018-05-09T12:24:48.965Z,60
2018-05-09T12:25:49.210Z,55
2018-05-09T12:26:48.677Z,55
2018-05-09T12:27:48.497Z,55
2018-05-09T12:28:49.284Z,55
2018-05-09T12:29:49.342Z,50
2018-05-09T12:30:49.075Z,55
2018-05-09T12:31:48.845Z,55
2018-05-09T12:32:49.138Z,25
2018-05-09T12:33:49.531Z,30
2018-05-09T12:34:49.467Z,55
2018-05-09T12:35:48.985Z,50
2018-05-09T12:36:49.004Z,55
2018-05-09T12:37:49.392Z,55
2018-05-09T12:38:49.353Z,55
2018-05-09T12:39:49.753Z,55
2018-05-09T12:40:49.400Z,55
2018-05-09T12:41:49.170Z,55
2018-05-09T12:42:49.194Z,55
2018-05-09T12:43:49.263Z,55
2018-05-09T12:44:49.816Z,60
2018-05-09T12:45:49.302Z,55
2018-05-09T12:46:49.852Z,55
2018-05-09T12:47:49.647Z,55
2018-05-09T12:48:50.833Z,55
2018-05-09T12:49:49.699Z,65
2018-05-09T12:50:49.746Z,65
2018-05-09T12:51:49.480Z,55
2018-05-09T12:52:50.078Z,55
2018-05-09T12:53:49.830Z,50
2018-05-09T12:54:50.256Z,50
2018-05-09T12:55:50.177Z,50
2018-05-09T12:56:50.211Z,50
2018-05-09T12:57:50.221Z,50
2018-05-09T12:58:49.997Z,50
2018-05-09T12:59:50.316Z,50
2018-05-09T13:00:50.339Z,50
2018-05-09T13:01:50.343Z,50
2018-05-09T13:02:50.108Z,50
2018-05-09T13:03:50.139Z,50
2018-05-09T13:04:50.437Z,50
2018-05-09T13:05:50.231Z,50
2018-05-09T13:06:49.690Z,50
2018-05-09T13:07:50.262Z,55
2018-05-09T13:08:50.304Z,55
2018-05-09T13:09:50.356Z,55
2018-05-09T13:10:50.386Z,55
2018-05-09T13:11:50.375Z,50
2018-05-09T13:12:50.760Z,50
2018-05-09T13:13:50.758Z,55
2018-05-09T13:14:50.761Z,50
2018-05-09T13:15:50.531Z,55
2018-05-09T13:16:50.272Z,55
2018-05-09T13:17:50.627Z,55
2018-05-09T13:18:50.888Z,55
2018-05-09T13:19:51.155Z,55
2018-05-09T13:20:50.700Z,55
2018-05-09T13:21:50.478Z,60
2018-05-09T13:22:50.763Z,55
2018-05-09T13:23:50.536Z,55
2018-05-09T13:24:50.850Z,55
2018-05-09T13:25:51.456Z,55
2018-05-09T13:26:50.613Z,55
2018-05-09T13:27:50.913Z,55
2018-05-09T13:28:50.962Z,55
2018-05-09T13:29:51.246Z,55
2018-05-09T13:30:51.029Z,55
2018-05-09T13:31:51.798Z,45
2018-05-09T13:32:51.349Z,60
2018-05-09T13:33:51.133Z,60
2018-05-09T13:34:51.134Z,60
2018-05-09T13:35:51.178Z,60
2018-05-09T13:36:51.493Z,60
2018-05-09T13:37:51.559Z,60
2018-05-09T13:38:51.299Z,60
2018-05-09T13:39:51.687Z,60
2018-05-09T13:40:51.630Z,65
2018-05-09T13:41:51.101Z,60
2018-05-09T13:42:51.722Z,60
2018-05-09T13:43:51.181Z,65
2018-05-09T13:44:51.758Z,60
2018-05-09T13:45:51.790Z,30
2018-05-09T13:46:51.550Z,25
2018-05-09T13:47:51.839Z,60
2018-05-09T13:48:51.598Z,30
2018-05-09T13:49:51.363Z,65
2018-05-09T13:50:51.676Z,70
2018-05-09T13:51:51.435Z,40
2018-05-09T13:52:52.080Z,75
2018-05-09T13:53:52.293Z,65
2018-05-09T13:54:52.103Z,65
2018-05-09T13:55:51.865Z,60
2018-05-09T13:56:52.158Z,60
2018-05-09T13:57:52.169Z,60
2018-05-09T13:58:52.259Z,60
2018-05-09T13:59:51.748Z,60
2018-05-09T14:00:52.273Z,60
2018-05-09T14:01:52.075Z,60
2018-05-09T14:02:52.342Z,65
2018-05-09T14:03:52.652Z,65
2018-05-09T14:04:52.444Z,70
2018-05-09T14:05:52.189Z,70
2018-05-09T14:06:52.497Z,65
2018-05-09T14:07:52.525Z,65
2018-05-09T14:08:52.282Z,60
2018-05-09T14:09:52.502Z,60
2018-05-09T14:10:52.624Z,60
2018-05-09T14:11:52.646Z,60
2018-05-09T14:12:52.479Z,60
2018-05-09T14:13:51.935Z,60
2018-05-09T14:14:52.755Z,60
2018-05-09T14:15:52.251Z,60
2018-05-09T14:16:52.274Z,60
2018-05-09T14:17:52.322Z,60
2018-05-09T14:18:52.617Z,60
2018-05-09T14:19:52.660Z,60
2018-05-09T14:20:52.923Z,60
2018-05-09T14:21:52.984Z,60
2018-05-09T14:22:52.769Z,60
2018-05-09T14:23:52.515Z,60
2018-05-09T14:24:53.077Z,60
2018-05-09T14:25:53.116Z,60
2018-05-09T14:26:53.180Z,60
2018-05-09T14:27:53.188Z,60
2018-05-09T14:28:52.962Z,60
2018-05-09T14:29:53.271Z,60
2018-05-09T14:30:52.772Z,60
2018-05-09T14:31:53.058Z,60
2018-05-09T14:32:53.108Z,60
2018-05-09T14:33:53.400Z,50
2018-05-09T14:34:53.459Z,35
2018-05-09T14:35:53.226Z,60
2018-05-09T14:36:53.215Z,55
2018-05-09T14:37:53.265Z,55